Time;durP1;ratioP1;P1;durP2;ratioP2;P2;SDS_P1;SDS_P2;PMS_P1;PMS_P2;Temp;Humidity;BMP_temperature;BMP_pressure;BME280_temperature;BME280_humidity;BME280_pressure;Samples;Min_cycle;Max_cycle;Signal;HPM_P1;HPM_P2
2022/05/04 00:00:45;;;;;;;;;;;;;;;10.16;68.07;96511.34;1690019;85;20324;-86
2022/05/04 00:03:11;;;;;;;;;;;;;;;10.14;68.15;96506.33;1690222;84;20111;-86
2022/05/04 00:05:37;;;;;;;;;;;;;;;10.11;68.25;96508.48;1689835;84;20103;-86
2022/05/04 00:08:03;;;;;;;;;;;;;;;10.08;68.47;96505.72;1675348;85;20123;-86
2022/05/04 00:10:30;;;;;;;;;;;;;;;10.06;68.67;96507.69;1690306;84;20124;-86
2022/05/04 00:12:57;;;;;;;;;;;;;;;10.02;68.88;96506.43;1695118;83;20123;-86
2022/05/04 00:15:24;;;;;;;;;;;;;;;10.00;69.00;96503.20;1699443;84;20147;-86
2022/05/04 00:17:50;;;;;;;;;;;;;;;10.00;68.95;96507.59;1691260;85;20114;-86
2022/05/04 00:20:16;;;;;;;;;;;;;;;10.00;68.77;96508.89;1671175;86;20390;-86
2022/05/04 00:22:41;;;;;;;;;;;;;;;10.01;68.72;96504.81;1671162;86;20138;-86
2022/05/04 00:25:08;;;;;;;;;;;;;;;10.04;68.66;96508.36;1671117;86;20106;-86
2022/05/04 00:27:34;;;;;;;;;;;;;;;10.06;68.90;96508.98;1646092;86;20121;-86
2022/05/04 00:30:00;;;;;;;;;;;;;;;10.07;68.91;96508.00;1646608;87;20429;-85
2022/05/04 00:32:25;;;;;;;;;;;;;;;10.07;69.21;96511.89;1646552;87;20148;-86
2022/05/04 00:34:51;;;;;;;;;;;;;;;10.04;69.49;96511.45;1598772;87;20404;-86
2022/05/04 00:37:16;;;;;;;;;;;;;;;10.00;69.51;96512.78;1670406;84;20108;-86
2022/05/04 00:39:42;;;;;;;;;;;;;;;9.97;69.32;96515.73;1690309;85;20159;-86
2022/05/04 00:42:11;;;;;;;;;;;;;;;9.94;69.33;96516.89;1690489;85;20107;-86
2022/05/04 00:44:37;;;;;;;;;;;;;;;9.92;69.48;96526.61;1689228;85;20147;-86
2022/05/04 00:47:04;;;;;;;;;;;;;;;9.90;69.71;96526.79;1709883;84;20146;-85
2022/05/04 00:49:30;;;;;;;;;;;;;;;9.87;69.76;96528.44;1713332;84;20146;-86
2022/05/04 00:51:57;;;;;;;;;;;;;;;9.84;69.95;96539.66;1707149;84;20119;-86
2022/05/04 00:54:22;;;;;;;;;;;;;;;9.80;70.07;96539.70;1702769;84;20196;-87
2022/05/04 00:56:48;;;;;;;;;;;;;;;9.76;69.88;96537.95;1702750;84;20122;-86
2022/05/04 00:59:14;;;;;;;;;;;;;;;9.74;69.84;96546.86;1702734;84;20095;-86
2022/05/04 01:01:39;;;;;;;;;;;;;;;9.71;70.00;96540.23;1707533;84;20118;-86
2022/05/04 01:04:06;;;;;;;;;;;;;;;9.72;70.42;96538.44;1686650;84;20125;-86
2022/05/04 01:06:32;;;;;;;;;;;;;;;9.73;70.47;96547.84;1713201;84;20142;-86
2022/05/04 01:08:58;;;;;;;;;;;;;;;9.73;70.60;96542.65;1686515;84;20143;-86
2022/05/04 01:11:23;;;;;;;;;;;;;;;9.73;70.67;96544.75;1713272;84;20154;-86
2022/05/04 01:14:04;;;;;;;;;;;;;;;9.75;70.55;96543.28;1704282;84;20099;-86
2022/05/04 01:16:30;;;;;;;;;;;;;;;9.77;70.30;96542.64;1713356;84;20383;-85
2022/05/04 01:18:55;;;;;;;;;;;;;;;9.80;70.23;96544.89;1713400;84;20194;-86
2022/05/04 01:21:21;;;;;;;;;;;;;;;9.81;70.32;96542.61;1708806;84;20370;-86
2022/05/04 01:23:47;;;;;;;;;;;;;;;9.81;70.35;96543.91;1704276;84;20138;-86
2022/05/04 01:26:16;;;;;;;;;;;;;;;9.78;70.18;96539.88;1704116;84;20141;-86
2022/05/04 01:28:41;;;;;;;;;;;;;;;9.78;70.15;96547.66;1704232;84;20365;-86
2022/05/04 01:31:06;;;;;;;;;;;;;;;9.76;70.21;96546.19;1705239;84;20147;-86
2022/05/04 01:33:32;;;;;;;;;;;;;;;9.74;70.27;96545.06;1687042;84;20122;-86
2022/05/04 01:35:58;;;;;;;;;;;;;;;9.72;70.31;96543.14;1713361;84;20118;-86
2022/05/04 01:38:24;;;;;;;;;;;;;;;9.71;70.33;96547.20;1713493;84;20269;-86
2022/05/04 01:40:50;;;;;;;;;;;;;;;9.68;70.43;96539.77;1709421;84;20200;-86
2022/05/04 01:43:15;;;;;;;;;;;;;;;9.67;70.52;96544.64;1713449;84;20123;-85
2022/05/04 01:45:41;;;;;;;;;;;;;;;9.64;70.57;96548.39;1713357;84;20340;-86
2022/05/04 01:48:08;;;;;;;;;;;;;;;9.62;70.71;96545.17;1697489;84;20092;-86
2022/05/04 01:50:34;;;;;;;;;;;;;;;9.56;70.77;96539.34;1692536;84;20338;-86
2022/05/04 01:53:00;;;;;;;;;;;;;;;9.60;70.87;96541.95;1692536;83;20188;-86
2022/05/04 01:55:25;;;;;;;;;;;;;;;9.59;71.03;96544.19;1712541;84;20114;-86
2022/05/04 01:57:51;;;;;;;;;;;;;;;9.57;71.14;96537.88;1713587;84;20324;-86
2022/05/04 02:00:17;;;;;;;;;;;;;;;9.56;71.11;96540.16;1712688;84;20114;-86
2022/05/04 02:02:42;;;;;;;;;;;;;;;9.56;71.21;96541.95;1710443;84;20320;-86
2022/05/04 02:05:08;;;;;;;;;;;;;;;9.58;71.34;96543.38;1710402;84;20087;-86
2022/05/04 02:07:35;;;;;;;;;;;;;;;9.61;71.33;96539.17;1710421;84;20328;-85
2022/05/04 02:10:02;;;;;;;;;;;;;;;9.68;71.51;96538.48;1710397;84;20122;-86
2022/05/04 02:12:30;;;;;;;;;;;;;;;9.75;71.50;96541.98;1710160;84;20099;-86
2022/05/04 02:14:55;;;;;;;;;;;;;;;9.81;71.55;96540.83;1710930;84;20351;-86
2022/05/04 02:17:21;;;;;;;;;;;;;;;9.87;71.79;96539.31;1713270;84;20071;-86
2022/05/04 02:19:46;;;;;;;;;;;;;;;9.91;72.00;96539.28;1713437;84;20150;-85
2022/05/04 02:22:12;;;;;;;;;;;;;;;9.96;72.06;96534.88;1713394;84;20091;-86
2022/05/04 02:24:37;;;;;;;;;;;;;;;9.98;72.09;96534.22;1713425;84;20107;-86
2022/05/04 02:27:03;;;;;;;;;;;;;;;10.01;72.27;96528.67;1713511;84;20297;-86
2022/05/04 02:29:29;;;;;;;;;;;;;;;10.04;72.34;96530.42;1713515;84;20139;-86
2022/05/04 02:31:57;;;;;;;;;;;;;;;10.06;72.12;96528.95;1712088;84;20134;-86
2022/05/04 02:34:22;;;;;;;;;;;;;;;10.07;72.02;96521.47;1709300;84;20383;-86
2022/05/04 02:39:32;;;;;;;;;;;;;;;10.09;71.87;96525.53;1710389;83;20165;-86
2022/05/04 02:41:57;;;;;;;;;;;;;;;10.10;71.86;96531.05;1710322;84;20162;-86
2022/05/04 02:44:23;;;;;;;;;;;;;;;10.11;71.82;96534.45;1710147;84;20134;-86
2022/05/04 02:46:49;;;;;;;;;;;;;;;10.10;72.11;96531.53;1708531;84;20312;-86
2022/05/04 02:49:15;;;;;;;;;;;;;;;10.10;72.19;96537.53;1692242;85;20389;-86
2022/05/04 02:51:41;;;;;;;;;;;;;;;10.08;71.89;96532.98;1692210;84;20121;-86
2022/05/04 02:54:07;;;;;;;;;;;;;;;10.07;71.96;96536.56;1692495;84;20337;-86
2022/05/04 02:56:32;;;;;;;;;;;;;;;10.07;72.17;96537.05;1692292;85;20118;-87
2022/05/04 02:58:58;;;;;;;;;;;;;;;10.07;72.25;96543.05;1692385;84;20128;-86
2022/05/04 03:04:08;;;;;;;;;;;;;;;10.07;72.22;96539.16;1703867;84;20162;-86
2022/05/04 03:06:36;;;;;;;;;;;;;;;10.08;72.17;96541.26;1698390;84;20099;-85
2022/05/04 03:09:02;;;;;;;;;;;;;;;10.07;71.99;96535.26;1701317;84;20403;-86
2022/05/04 03:14:12;;;;;;;;;;;;;;;10.07;72.60;96535.26;1703544;84;20092;-85
2022/05/04 03:16:38;;;;;;;;;;;;;;;10.07;72.65;96540.95;1695598;84;20355;-86
2022/05/04 03:19:04;;;;;;;;;;;;;;;10.09;72.62;96539.01;1703757;83;20091;-86
2022/05/04 03:21:30;;;;;;;;;;;;;;;10.13;72.49;96546.27;1700393;84;20103;-86
2022/05/04 03:23:55;;;;;;;;;;;;;;;10.19;72.27;96549.94;1695306;85;20095;-86
2022/05/04 03:26:21;;;;;;;;;;;;;;;10.23;72.30;96549.44;1672013;85;20088;-86
2022/05/04 03:28:46;;;;;;;;;;;;;;;10.30;72.23;96544.38;1700582;84;20170;-86
2022/05/04 03:31:12;;;;;;;;;;;;;;;10.39;72.36;96550.28;1692368;84;20168;-86
2022/05/04 03:33:38;;;;;;;;;;;;;;;10.47;72.47;96555.42;1679092;84;20131;-86
2022/05/04 03:36:04;;;;;;;;;;;;;;;10.56;72.45;96558.23;1704027;84;20108;-86
2022/05/04 03:38:29;;;;;;;;;;;;;;;10.63;72.40;96559.16;1704067;84;20121;-86
2022/05/04 03:40:55;;;;;;;;;;;;;;;10.68;72.24;96557.33;1703858;84;20101;-86
2022/05/04 03:43:21;;;;;;;;;;;;;;;10.67;71.87;96560.42;1704078;84;20797;-86
2022/05/04 03:45:46;;;;;;;;;;;;;;;10.67;71.69;96559.61;1704001;84;20073;-86
2022/05/04 03:48:12;;;;;;;;;;;;;;;10.65;71.69;96558.98;1702326;83;20089;-86
2022/05/04 03:50:37;;;;;;;;;;;;;;;10.63;71.63;96561.77;1669114;85;20080;-86
2022/05/04 03:53:03;;;;;;;;;;;;;;;10.63;71.40;96571.35;1697764;85;20350;-86
2022/05/04 03:55:30;;;;;;;;;;;;;;;10.60;71.71;96569.92;1695826;85;20119;-85
2022/05/04 03:57:56;;;;;;;;;;;;;;;10.59;71.69;96564.41;1680426;85;20425;-85
2022/05/04 04:00:22;;;;;;;;;;;;;;;10.58;71.70;96575.78;1691603;85;20357;-86
2022/05/04 04:02:48;;;;;;;;;;;;;;;10.58;71.51;96577.09;1666786;86;20096;-86
2022/05/04 04:05:15;;;;;;;;;;;;;;;10.61;71.86;96578.52;1698457;85;20112;-86
2022/05/04 04:07:41;;;;;;;;;;;;;;;10.65;72.13;96583.67;1696994;83;20376;-85
2022/05/04 04:10:08;;;;;;;;;;;;;;;10.72;72.09;96585.86;1693516;84;20096;-86
2022/05/04 04:12:34;;;;;;;;;;;;;;;10.77;72.49;96592.66;1695977;83;20152;-85
2022/05/04 04:15:00;;;;;;;;;;;;;;;10.82;72.46;96591.12;1700500;83;20150;-85
2022/05/04 04:17:25;;;;;;;;;;;;;;;10.88;72.64;96597.89;1697982;84;20095;-86
2022/05/04 04:21:50;;;;;;;;;;;;;;;10.93;72.96;96602.89;1697624;85;20119;-86
2022/05/04 04:22:18;;;;;;;;;;;;;;;10.98;72.95;96608.36;1696386;83;20368;-86
2022/05/04 04:24:44;;;;;;;;;;;;;;;11.03;73.05;96607.31;1668409;85;20242;-85
2022/05/04 04:27:09;;;;;;;;;;;;;;;11.06;73.30;96613.48;1697676;83;20349;-86
2022/05/04 04:29:35;;;;;;;;;;;;;;;11.08;73.15;96608.91;1698714;84;20086;-85
2022/05/04 04:32:01;;;;;;;;;;;;;;;11.11;73.16;96611.15;1698610;84;20136;-85
2022/05/04 04:34:27;;;;;;;;;;;;;;;11.17;73.27;96612.22;1693615;83;20101;-85
2022/05/04 04:36:52;;;;;;;;;;;;;;;11.24;73.34;96613.12;1691784;85;20100;-85
2022/05/04 04:39:18;;;;;;;;;;;;;;;11.32;73.33;96614.32;1667902;85;20188;-85
2022/05/04 04:41:44;;;;;;;;;;;;;;;11.39;73.53;96617.83;1697170;83;20114;-85
2022/05/04 04:44:10;;;;;;;;;;;;;;;11.46;73.48;96613.20;1690344;85;20126;-86
2022/05/04 04:46:37;;;;;;;;;;;;;;;11.51;73.51;96614.75;1688727;85;20143;-85
2022/05/04 04:49:02;;;;;;;;;;;;;;;11.54;73.80;96627.39;1694312;85;20119;-86
2022/05/04 04:51:28;;;;;;;;;;;;;;;11.55;73.61;96627.23;1695242;85;20115;-85
2022/05/04 04:53:54;;;;;;;;;;;;;;;11.57;73.69;96629.66;1695674;85;20371;-86
2022/05/04 04:56:20;;;;;;;;;;;;;;;11.55;73.75;96629.84;1695587;85;20122;-85
2022/05/04 04:58:45;;;;;;;;;;;;;;;11.50;73.53;96631.35;1695610;85;20116;-84
2022/05/04 05:01:11;;;;;;;;;;;;;;;11.46;73.29;96622.30;1695673;85;20124;-86
2022/05/04 05:03:36;;;;;;;;;;;;;;;11.39;73.31;96623.53;1695575;85;20103;-85
2022/05/04 05:06:02;;;;;;;;;;;;;;;11.36;73.42;96623.38;1695690;85;20306;-86
2022/05/04 05:08:28;;;;;;;;;;;;;;;11.38;73.31;96621.89;1695633;85;20111;-86
2022/05/04 05:10:53;;;;;;;;;;;;;;;11.40;73.60;96631.64;1695626;85;20389;-85
2022/05/04 05:13:19;;;;;;;;;;;;;;;11.42;73.88;96631.77;1695655;85;20151;-86
2022/05/04 05:18:28;;;;;;;;;;;;;;;11.57;73.84;96636.16;1695669;85;20092;-86
2022/05/04 05:20:54;;;;;;;;;;;;;;;11.63;73.62;96629.73;1695450;85;20122;-86
2022/05/04 05:23:20;;;;;;;;;;;;;;;11.69;73.27;96628.98;1695499;85;20114;-85
2022/05/04 05:25:45;;;;;;;;;;;;;;;11.69;73.53;96631.59;1695503;85;20127;-86
2022/05/04 05:28:11;;;;;;;;;;;;;;;11.67;73.34;96624.46;1695546;85;20328;-86
2022/05/04 05:30:36;;;;;;;;;;;;;;;11.72;73.10;96620.03;1695586;85;20084;-85
2022/05/04 05:33:02;;;;;;;;;;;;;;;11.78;73.20;96620.59;1697048;85;20163;-85
2022/05/04 05:35:28;;;;;;;;;;;;;;;11.85;73.27;96618.88;1697328;84;20099;-86
2022/05/04 05:37:53;;;;;;;;;;;;;;;11.89;73.37;96614.14;1697241;85;20328;-86
2022/05/04 05:40:19;;;;;;;;;;;;;;;11.98;73.59;96617.73;1697220;85;20111;-86
2022/05/04 05:42:45;;;;;;;;;;;;;;;12.07;73.49;96622.34;1697145;84;20119;-86
2022/05/04 05:45:11;;;;;;;;;;;;;;;12.17;73.28;96624.63;1697390;85;20313;-86
2022/05/04 05:47:36;;;;;;;;;;;;;;;12.27;73.13;96622.53;1698808;84;20088;-86
2022/05/04 05:50:02;;;;;;;;;;;;;;;12.38;72.93;96623.34;1710658;84;20150;-85
2022/05/04 05:52:28;;;;;;;;;;;;;;;12.44;73.32;96627.80;1710442;84;20142;-85
2022/05/04 05:54:53;;;;;;;;;;;;;;;12.44;72.55;96625.69;1710714;84;20127;-86
2022/05/04 05:57:22;;;;;;;;;;;;;;;12.39;72.28;96623.66;1710528;84;20134;-86
2022/05/04 05:59:46;;;;;;;;;;;;;;;12.43;72.92;96620.98;1710603;84;20107;-85
2022/05/04 06:02:12;;;;;;;;;;;;;;;12.49;72.60;96622.83;1709544;84;20143;-85
2022/05/04 06:04:38;;;;;;;;;;;;;;;12.56;72.71;96613.28;1710503;84;20087;-86
2022/05/04 06:07:04;;;;;;;;;;;;;;;12.61;72.64;96614.81;1710646;84;20866;-86
2022/05/04 06:09:30;;;;;;;;;;;;;;;12.69;72.97;96619.56;1710891;84;20123;-86
2022/05/04 06:11:56;;;;;;;;;;;;;;;12.69;72.67;96623.01;1710590;84;20103;-86
2022/05/04 06:14:22;;;;;;;;;;;;;;;12.72;72.70;96619.22;1710569;84;20362;-86
2022/05/04 06:16:49;;;;;;;;;;;;;;;12.82;73.46;96620.48;1710813;84;20135;-85
2022/05/04 06:19:15;;;;;;;;;;;;;;;12.96;72.97;96628.40;1710458;84;20110;-86
2022/05/04 06:21:41;;;;;;;;;;;;;;;13.08;72.74;96629.49;1710683;84;20355;-86
2022/05/04 06:24:07;;;;;;;;;;;;;;;13.15;72.12;96625.11;1710483;84;20091;-86
2022/05/04 06:26:32;;;;;;;;;;;;;;;13.24;72.08;96626.61;1710507;84;20106;-86
2022/05/04 06:28:58;;;;;;;;;;;;;;;13.39;72.44;96627.80;1710503;84;20312;-85
2022/05/04 06:34:07;;;;;;;;;;;;;;;13.65;70.93;96630.52;1710525;84;20095;-85
2022/05/04 06:36:34;;;;;;;;;;;;;;;13.71;71.10;96631.06;1710651;84;20372;-86
2022/05/04 06:38:59;;;;;;;;;;;;;;;13.66;69.98;96637.84;1710555;84;20376;-85
2022/05/04 06:41:25;;;;;;;;;;;;;;;13.61;69.54;96638.44;1710702;84;20167;-86
2022/05/04 06:43:51;;;;;;;;;;;;;;;13.69;69.79;96643.51;1710376;84;20102;-86
2022/05/04 06:46:17;;;;;;;;;;;;;;;13.78;69.26;96640.22;1710618;84;20209;-86
2022/05/04 06:48:43;;;;;;;;;;;;;;;13.89;69.33;96640.16;1710458;84;20146;-86
2022/05/04 06:51:08;;;;;;;;;;;;;;;14.01;69.26;96639.91;1710585;84;20122;-86
2022/05/04 06:53:34;;;;;;;;;;;;;;;14.04;69.23;96638.20;1710692;84;20474;-86
2022/05/04 06:56:00;;;;;;;;;;;;;;;14.08;69.57;96634.19;1710670;84;20755;-85
2022/05/04 06:58:28;;;;;;;;;;;;;;;14.10;69.53;96630.88;1710514;84;20384;-86
2022/05/04 07:00:53;;;;;;;;;;;;;;;14.20;70.46;96630.50;1710663;84;20135;-86
2022/05/04 07:03:21;;;;;;;;;;;;;;;14.32;71.02;96627.12;1710609;84;20126;-86
2022/05/04 07:05:46;;;;;;;;;;;;;;;14.42;68.83;96628.02;1710490;84;20087;-85
2022/05/04 07:08:12;;;;;;;;;;;;;;;14.41;68.12;96622.48;1710440;84;20091;-85
2022/05/04 07:10:37;;;;;;;;;;;;;;;14.39;67.86;96632.34;1710450;84;20115;-86
2022/05/04 07:13:03;;;;;;;;;;;;;;;14.45;67.90;96632.87;1710488;84;20360;-85
2022/05/04 07:15:28;;;;;;;;;;;;;;;14.60;68.17;96640.03;1710630;84;20143;-85
2022/05/04 07:17:55;;;;;;;;;;;;;;;14.70;67.37;96634.41;1710670;84;20103;-86
2022/05/04 07:20:21;;;;;;;;;;;;;;;14.81;66.64;96636.94;1710518;84;20103;-86
2022/05/04 07:22:47;;;;;;;;;;;;;;;14.87;65.53;96644.77;1710591;84;20111;-85
2022/05/04 07:25:12;;;;;;;;;;;;;;;14.94;66.13;96643.45;1710431;84;20164;-86
2022/05/04 07:27:38;;;;;;;;;;;;;;;15.02;66.04;96639.33;1710653;84;20304;-86
2022/05/04 07:30:05;;;;;;;;;;;;;;;15.13;66.64;96643.95;1710491;84;20099;-86
2022/05/04 07:32:30;;;;;;;;;;;;;;;15.22;66.56;96641.41;1710621;84;20082;-86
2022/05/04 07:34:56;;;;;;;;;;;;;;;15.20;65.34;96642.63;1710433;84;20107;-86
2022/05/04 07:37:21;;;;;;;;;;;;;;;15.19;65.50;96644.94;1710692;84;20098;-86
2022/05/04 07:42:31;;;;;;;;;;;;;;;15.35;65.79;96647.13;1710488;84;20095;-86
2022/05/04 07:44:59;;;;;;;;;;;;;;;15.40;65.15;96651.23;1710544;84;20322;-86
2022/05/04 07:47:26;;;;;;;;;;;;;;;15.46;65.62;96647.01;1710612;84;20145;-85
2022/05/04 07:49:52;;;;;;;;;;;;;;;15.53;65.00;96650.41;1710270;84;20162;-86
2022/05/04 07:52:17;;;;;;;;;;;;;;;15.54;63.66;96655.94;1710667;84;20115;-86
2022/05/04 07:54:43;;;;;;;;;;;;;;;15.52;63.44;96650.91;1710512;84;20170;-86
2022/05/04 07:57:09;;;;;;;;;;;;;;;15.59;64.04;96651.71;1710576;84;20115;-86
2022/05/04 07:59:35;;;;;;;;;;;;;;;15.71;63.57;96650.58;1710346;84;20118;-86
2022/05/04 08:04:44;;;;;;;;;;;;;;;15.87;63.46;96654.03;1710502;84;20234;-86
2022/05/04 08:07:10;;;;;;;;;;;;;;;16.04;63.00;96660.11;1710622;84;20438;-86
2022/05/04 08:09:36;;;;;;;;;;;;;;;16.13;61.93;96657.05;1710520;84;20159;-86
2022/05/04 08:12:04;;;;;;;;;;;;;;;16.24;62.65;96658.69;1710605;84;20087;-86
2022/05/04 08:14:29;;;;;;;;;;;;;;;16.30;61.48;96659.19;1710622;84;20110;-86
2022/05/04 08:16:55;;;;;;;;;;;;;;;16.42;59.64;96658.78;1710452;84;20132;-85
2022/05/04 08:19:20;;;;;;;;;;;;;;;16.58;59.82;96666.14;1710728;84;20079;-86
2022/05/04 08:21:46;;;;;;;;;;;;;;;16.73;60.51;96660.12;1710583;84;20091;-86
2022/05/04 08:24:12;;;;;;;;;;;;;;;16.78;58.29;96664.23;1710777;84;20123;-86
2022/05/04 08:26:37;;;;;;;;;;;;;;;16.84;58.12;96664.39;1710674;84;20158;-86
2022/05/04 08:29:03;;;;;;;;;;;;;;;16.98;57.12;96660.64;1710626;84;20087;-86
2022/05/04 08:31:29;;;;;;;;;;;;;;;17.11;56.24;96657.91;1710520;84;20099;-85
2022/05/04 08:33:55;;;;;;;;;;;;;;;17.30;56.23;96659.55;1710623;84;20126;-86
2022/05/04 08:36:21;;;;;;;;;;;;;;;17.53;55.73;96658.09;1710746;84;20130;-86
2022/05/04 08:38:46;;;;;;;;;;;;;;;17.74;55.71;96656.91;1708847;84;20095;-86
2022/05/04 08:41:12;;;;;;;;;;;;;;;17.89;54.86;96658.10;1708787;84;20115;-86
2022/05/04 08:43:39;;;;;;;;;;;;;;;18.04;54.18;96653.78;1710432;84;20134;-86
2022/05/04 08:46:05;;;;;;;;;;;;;;;18.18;53.34;96657.05;1710516;84;20206;-86
2022/05/04 08:48:32;;;;;;;;;;;;;;;18.29;53.08;96658.41;1710325;83;20122;-86
2022/05/04 08:51:00;;;;;;;;;;;;;;;18.24;51.61;96656.97;1707622;84;20399;-86
2022/05/04 08:53:26;;;;;;;;;;;;;;;18.28;50.58;96658.64;1707385;84;20371;-86
2022/05/04 08:55:52;;;;;;;;;;;;;;;18.38;50.63;96662.03;1707353;84;20139;-86
2022/05/04 08:58:17;;;;;;;;;;;;;;;18.45;49.47;96655.66;1707639;84;20111;-86
2022/05/04 09:00:43;;;;;;;;;;;;;;;18.56;49.67;96654.91;1707524;84;20119;-85
2022/05/04 09:03:09;;;;;;;;;;;;;;;18.60;50.02;96657.88;1707639;84;20146;-86
2022/05/04 09:05:40;;;;;;;;;;;;;;;18.62;49.18;96655.81;1707466;84;20130;-86
2022/05/04 09:08:06;;;;;;;;;;;;;;;18.65;48.73;96656.70;1707445;84;20172;-86
2022/05/04 09:10:36;;;;;;;;;;;;;;;18.59;45.94;96657.08;1707603;84;20118;-86
2022/05/04 09:13:03;;;;;;;;;;;;;;;18.52;44.75;96662.94;1707463;84;20111;-86
2022/05/04 09:15:31;;;;;;;;;;;;;;;18.48;46.26;96651.27;1707463;84;20137;-85
2022/05/04 09:18:02;;;;;;;;;;;;;;;18.64;44.60;96653.79;1707618;84;20195;-86
2022/05/04 09:20:49;;;;;;;;;;;;;;;18.73;43.51;96653.77;1706536;84;20143;-86
2022/05/04 09:23:18;;;;;;;;;;;;;;;18.73;45.57;96668.24;1707684;84;20126;-86
2022/05/04 09:25:46;;;;;;;;;;;;;;;18.57;44.06;96661.77;1707517;84;20443;-85
2022/05/04 09:28:13;;;;;;;;;;;;;;;18.53;45.05;96654.02;1707399;84;20359;-86
2022/05/04 09:30:44;;;;;;;;;;;;;;;18.58;45.63;96660.73;1707625;84;20894;-86
2022/05/04 09:33:11;;;;;;;;;;;;;;;18.64;45.66;96659.05;1707449;84;20115;-86
2022/05/04 09:35:40;;;;;;;;;;;;;;;18.75;47.72;96665.38;1707596;84;20098;-85
2022/05/04 09:46:39;;;;;;;;;;;;;;;18.90;43.55;96655.22;1707522;84;20103;-86
2022/05/04 09:49:13;;;;;;;;;;;;;;;18.90;44.34;96657.86;1704782;84;20134;-86
2022/05/04 09:51:40;;;;;;;;;;;;;;;18.88;45.03;96659.41;1697118;84;20103;-86
2022/05/04 09:54:22;;;;;;;;;;;;;;;18.99;44.98;96653.04;1697232;85;20328;-86
2022/05/04 09:56:53;;;;;;;;;;;;;;;19.11;44.17;96653.34;1697217;85;20142;-86
2022/05/04 09:59:31;;;;;;;;;;;;;;;19.24;39.73;96660.22;1697215;85;20389;-86
2022/05/04 10:01:59;;;;;;;;;;;;;;;19.32;43.73;96657.22;1697341;85;20098;-85
2022/05/04 10:04:25;;;;;;;;;;;;;;;19.46;42.33;96648.57;1697327;85;20102;-85
2022/05/04 10:06:51;;;;;;;;;;;;;;;19.62;41.72;96643.13;1697294;85;20167;-85
2022/05/04 10:09:16;;;;;;;;;;;;;;;19.73;42.84;96652.86;1697275;85;20194;-86
2022/05/04 10:11:42;;;;;;;;;;;;;;;19.85;41.74;96646.22;1697511;85;20353;-86
2022/05/04 10:14:10;;;;;;;;;;;;;;;19.94;41.79;96640.88;1697303;85;20107;-86
2022/05/04 10:16:47;;;;;;;;;;;;;;;19.94;41.85;96640.36;1697359;85;20326;-86
2022/05/04 10:19:21;;;;;;;;;;;;;;;19.96;43.16;96638.28;1675333;85;20087;-86
2022/05/04 10:21:49;;;;;;;;;;;;;;;20.08;41.41;96643.53;1696284;84;20365;-86
2022/05/04 10:24:16;;;;;;;;;;;;;;;20.09;41.00;96646.45;1697477;85;20091;-86
2022/05/04 10:26:44;;;;;;;;;;;;;;;20.05;41.35;96640.05;1697189;85;20368;-86
2022/05/04 10:32:38;;;;;;;;;;;;;;;20.22;40.44;96632.98;1697403;85;20163;-85
2022/05/04 10:35:09;;;;;;;;;;;;;;;20.00;39.95;96635.97;1696239;84;20115;-86
2022/05/04 10:37:34;;;;;;;;;;;;;;;19.97;40.49;96635.13;1682384;85;20148;-86
2022/05/04 10:40:06;;;;;;;;;;;;;;;19.96;40.32;96630.89;1663491;85;20116;-85
2022/05/04 10:42:55;;;;;;;;;;;;;;;19.98;39.20;96637.53;1687421;85;20120;-86
2022/05/04 10:45:23;;;;;;;;;;;;;;;19.99;39.89;96639.13;1687378;85;20317;-86
2022/05/04 10:47:49;;;;;;;;;;;;;;;20.03;39.81;96632.89;1687329;85;20100;-86
2022/05/04 10:50:19;;;;;;;;;;;;;;;20.08;39.49;96629.02;1687905;84;21231;-87
2022/05/04 10:52:48;;;;;;;;;;;;;;;20.16;40.28;96629.95;1727895;83;20441;-86
2022/05/04 10:55:14;;;;;;;;;;;;;;;20.13;39.89;96626.98;1696366;85;20125;-86
2022/05/04 10:57:42;;;;;;;;;;;;;;;20.00;39.27;96626.22;1694779;85;20151;-86
2022/05/04 11:00:10;;;;;;;;;;;;;;;19.82;39.03;96626.40;1694755;85;20123;-86
2022/05/04 11:02:43;;;;;;;;;;;;;;;19.69;39.45;96620.90;1694801;85;20124;-86
2022/05/04 11:05:11;;;;;;;;;;;;;;;19.61;39.62;96623.88;1645085;85;20107;-86
2022/05/04 11:07:37;;;;;;;;;;;;;;;19.46;39.84;96623.02;1694676;85;20340;-85
2022/05/04 11:10:03;;;;;;;;;;;;;;;19.33;39.38;96620.62;1694847;85;20103;-86
2022/05/04 11:12:29;;;;;;;;;;;;;;;19.34;41.59;96621.42;1694904;85;20088;-86
2022/05/04 11:14:54;;;;;;;;;;;;;;;19.49;40.28;96615.95;1694869;85;20115;-86
2022/05/04 11:17:20;;;;;;;;;;;;;;;19.74;40.69;96623.63;1694979;85;20130;-86
2022/05/04 11:19:47;;;;;;;;;;;;;;;19.89;39.91;96616.53;1694760;85;20096;-86
2022/05/04 11:22:14;;;;;;;;;;;;;;;19.91;38.53;96618.42;1694498;85;20099;-86
2022/05/04 11:24:39;;;;;;;;;;;;;;;19.97;40.77;96620.62;1694699;85;20150;-86
2022/05/04 11:27:06;;;;;;;;;;;;;;;20.11;40.06;96619.83;1694811;85;20122;-86
2022/05/04 11:29:33;;;;;;;;;;;;;;;20.15;37.94;96617.80;1694763;85;20364;-86
2022/05/04 11:32:03;;;;;;;;;;;;;;;20.19;38.09;96615.51;1694717;85;20183;-86
2022/05/04 11:34:32;;;;;;;;;;;;;;;20.28;38.80;96618.83;1694811;85;20091;-86
2022/05/04 11:36:58;;;;;;;;;;;;;;;20.28;38.96;96621.47;1694748;85;20104;-86
2022/05/04 11:39:27;;;;;;;;;;;;;;;20.25;38.71;96615.34;1694868;85;20104;-86
2022/05/04 11:41:55;;;;;;;;;;;;;;;20.05;35.86;96621.58;1694779;85;20127;-86
2022/05/04 11:44:22;;;;;;;;;;;;;;;19.90;38.79;96626.56;1694699;85;20104;-86
2022/05/04 11:46:48;;;;;;;;;;;;;;;19.97;38.87;96623.26;1694829;85;20104;-86
2022/05/04 11:49:14;;;;;;;;;;;;;;;20.00;38.04;96618.83;1694582;85;20440;-86
2022/05/04 11:51:42;;;;;;;;;;;;;;;20.05;38.88;96611.03;1690840;85;20123;-86
2022/05/04 11:54:07;;;;;;;;;;;;;;;20.09;39.86;96614.27;1728420;83;20128;-86
2022/05/04 11:56:34;;;;;;;;;;;;;;;20.15;38.91;96615.67;1696233;85;20146;-86
2022/05/04 11:58:59;;;;;;;;;;;;;;;20.05;38.00;96608.39;1694669;85;20163;-86
2022/05/04 12:01:25;;;;;;;;;;;;;;;19.98;39.37;96616.43;1694809;85;20084;-86
2022/05/04 12:03:53;;;;;;;;;;;;;;;19.92;38.14;96609.47;1694729;85;20083;-86
2022/05/04 12:06:19;;;;;;;;;;;;;;;19.93;38.94;96613.70;1694699;85;20177;-86
2022/05/04 12:08:44;;;;;;;;;;;;;;;20.00;38.04;96602.48;1659633;85;20173;-86
2022/05/04 12:11:10;;;;;;;;;;;;;;;20.04;39.25;96605.47;1721346;83;20137;-86
2022/05/04 12:13:37;;;;;;;;;;;;;;;20.06;36.46;96611.31;1698521;84;20766;-86
2022/05/04 12:16:03;;;;;;;;;;;;;;;20.13;37.42;96604.56;1698492;85;20110;-86
2022/05/04 12:18:29;;;;;;;;;;;;;;;20.14;35.22;96604.32;1698524;85;20130;-86
2022/05/04 12:20:55;;;;;;;;;;;;;;;20.05;37.22;96607.88;1698445;85;20119;-86
2022/05/04 12:23:21;;;;;;;;;;;;;;;19.95;38.06;96616.91;1698419;85;20123;-86
2022/05/04 12:25:47;;;;;;;;;;;;;;;19.82;36.94;96609.27;1698467;85;20388;-86
2022/05/04 12:28:12;;;;;;;;;;;;;;;19.82;38.56;96608.46;1698414;85;20143;-86
2022/05/04 12:33:34;;;;;;;;;;;;;;;19.64;38.06;96610.23;1661220;86;20103;-86
2022/05/04 12:36:04;;;;;;;;;;;;;;;19.57;37.80;96604.82;1662760;86;20118;-85
2022/05/04 12:38:32;;;;;;;;;;;;;;;19.46;37.57;96609.04;1667107;86;20111;-85
2022/05/04 12:40:58;;;;;;;;;;;;;;;19.40;38.84;96604.70;1699135;85;20144;-86
2022/05/04 12:43:24;;;;;;;;;;;;;;;19.38;38.44;96606.78;1699365;85;20174;-85
2022/05/04 12:45:50;;;;;;;;;;;;;;;19.38;39.09;96600.19;1699277;84;20083;-86
2022/05/04 12:48:19;;;;;;;;;;;;;;;19.34;39.58;96607.73;1699335;84;20329;-86
2022/05/04 12:50:46;;;;;;;;;;;;;;;19.36;39.07;96603.06;1695403;85;20374;-86
2022/05/04 12:53:15;;;;;;;;;;;;;;;19.35;39.38;96596.67;1689549;85;20168;-86
2022/05/04 12:58:25;;;;;;;;;;;;;;;19.22;38.73;96595.63;1693918;85;20143;-86
2022/05/04 13:00:50;;;;;;;;;;;;;;;19.10;38.37;96604.33;1693952;85;20084;-86
2022/05/04 13:03:16;;;;;;;;;;;;;;;18.93;38.83;96594.72;1693872;85;20333;-86
2022/05/04 13:05:43;;;;;;;;;;;;;;;18.86;40.46;96592.98;1689518;85;20126;-86
2022/05/04 13:08:08;;;;;;;;;;;;;;;18.78;39.58;96592.02;1699209;82;20169;-86
2022/05/04 13:10:36;;;;;;;;;;;;;;;18.70;39.06;96601.55;1680450;84;20366;-86
2022/05/04 13:13:02;;;;;;;;;;;;;;;18.56;38.84;96597.01;1691241;85;20163;-86
2022/05/04 13:15:28;;;;;;;;;;;;;;;18.46;39.56;96590.17;1691249;85;20315;-86
2022/05/04 13:17:53;;;;;;;;;;;;;;;18.45;40.30;96605.67;1691312;84;20098;-86
2022/05/04 13:20:19;;;;;;;;;;;;;;;18.45;40.48;96603.04;1691367;84;20437;-86